Time;durP1;ratioP1;P1;durP2;ratioP2;P2;SDS_P1;SDS_P2;PMS_P1;PMS_P2;Temp;Humidity;BMP_temperature;BMP_pressure;BME280_temperature;BME280_humidity;BME280_pressure;Samples;Min_cycle;Max_cycle;Signal;HPM_P1;HPM_P2
2022/02/13 00:00:09;;;;;;;16.85;9.63;;;;;;;-2.78;100.00;97388.31;4979855;28;20121;-65
2022/02/13 00:02:35;;;;;;;;;;;;;;;-2.89;100.00;97384.00;4984505;28;20045;-66
2022/02/13 00:05:01;;;;;;;17.80;10.10;;;;;;;-2.96;100.00;97386.91;4985153;28;19914;-65
2022/02/13 00:07:27;;;;;;;19.88;9.93;;;;;;;-2.80;100.00;97384.28;4979535;28;20125;-66
2022/02/13 00:09:53;;;;;;;21.77;10.23;;;;;;;-2.75;100.00;97371.69;4978471;28;20053;-66
2022/02/13 00:12:18;;;;;;;21.95;10.00;;;;;;;-2.80;100.00;97379.72;4976784;28;20050;-66
2022/02/13 00:14:45;;;;;;;21.48;10.57;;;;;;;-2.77;100.00;97383.78;4984608;28;20046;-65
2022/02/13 00:17:10;;;;;;;18.55;9.45;;;;;;;-2.72;100.00;97379.22;4975665;28;20505;-67
2022/02/13 00:19:36;;;;;;;16.23;9.52;;;;;;;-2.74;100.00;97373.31;4988637;28;20144;-67
2022/02/13 00:22:01;;;;;;;18.48;10.20;;;;;;;-2.66;100.00;97373.88;4981455;28;20045;-66
2022/02/13 00:24:27;;;;;;;20.42;10.32;;;;;;;-2.74;100.00;97373.31;4978460;28;20543;-65
2022/02/13 00:26:53;;;;;;;20.58;10.13;;;;;;;-2.72;100.00;97368.50;4976715;28;20063;-66
2022/02/13 00:29:18;;;;;;;17.05;9.48;;;;;;;-2.65;100.00;97364.75;4976497;28;20446;-66
2022/02/13 00:31:44;;;;;;;18.00;9.88;;;;;;;-2.74;100.00;97365.28;4982786;28;20046;-67
2022/02/13 00:34:09;;;;;;;15.15;9.75;;;;;;;-2.68;100.00;97358.06;4980069;28;20558;-66
2022/02/13 00:36:35;;;;;;;13.10;9.45;;;;;;;-2.69;100.00;97357.22;4984149;28;20085;-65
2022/02/13 00:39:00;;;;;;;15.65;9.57;;;;;;;-2.79;100.00;97356.41;4984095;28;20403;-65
2022/02/13 00:41:26;;;;;;;16.63;9.57;;;;;;;-2.74;100.00;97356.41;4970028;28;20140;-71
2022/02/13 00:43:52;;;;;;;15.43;9.27;;;;;;;-2.81;100.00;97359.38;4984618;28;20042;-67
2022/02/13 00:46:17;;;;;;;17.05;9.57;;;;;;;-2.87;100.00;97352.34;4979311;28;20553;-67
2022/02/13 00:48:43;;;;;;;15.48;9.13;;;;;;;-3.11;100.00;97360.84;4984199;28;20092;-67
2022/02/13 00:51:08;;;;;;;21.15;10.05;;;;;;;-3.08;100.00;97360.34;4978751;28;20523;-67
2022/02/13 00:53:34;;;;;;;18.02;9.32;;;;;;;-3.08;100.00;97359.50;4981526;28;20140;-67
2022/02/13 00:55:59;;;;;;;16.55;10.00;;;;;;;-3.05;100.00;97359.00;4982565;28;20077;-68
2022/02/13 00:58:27;;;;;;;16.67;10.13;;;;;;;-3.06;100.00;97360.09;4978178;28;20070;-67
2022/02/13 01:00:52;;;;;;;17.73;9.73;;;;;;;-3.17;100.00;97359.22;4983876;28;20046;-66
2022/02/13 01:03:18;;;;;;;19.38;11.07;;;;;;;-3.28;100.00;97346.84;4975542;28;20180;-66
2022/02/13 01:05:43;;;;;;;18.25;9.95;;;;;;;-3.52;100.00;97360.66;4981021;28;20488;-66
2022/02/13 01:08:09;;;;;;;19.38;10.45;;;;;;;-3.47;100.00;97360.69;4977810;28;20121;-67
2022/02/13 01:10:34;;;;;;;17.80;9.85;;;;;;;-3.39;100.00;97346.00;4983509;28;20069;-66
2022/02/13 01:13:01;;;;;;;22.77;10.35;;;;;;;-3.48;100.00;97359.06;4983816;28;20066;-66
2022/02/13 01:15:27;;;;;;;15.68;9.32;;;;;;;-3.54;100.00;97362.78;4978600;28;20073;-65
2022/02/13 01:17:54;;;;;;;16.25;9.77;;;;;;;-3.63;100.00;97355.50;4982505;28;20057;-67
2022/02/13 01:20:19;;;;;;;17.23;9.90;;;;;;;-3.92;100.00;97350.50;4979285;28;20048;-66
2022/02/13 01:22:45;;;;;;;19.75;10.77;;;;;;;-4.17;100.00;97353.81;4984047;28;20050;-66
2022/02/13 01:25:11;;;;;;;23.88;10.95;;;;;;;-4.38;100.00;97350.94;4978669;28;20050;-66
2022/02/13 01:27:36;;;;;;;20.63;11.15;;;;;;;-4.50;100.00;97352.97;4989258;28;20046;-66
2022/02/13 01:30:03;;;;;;;18.45;10.73;;;;;;;-4.56;100.00;97349.44;4997075;28;20042;-69
2022/02/13 01:32:29;;;;;;;22.98;11.35;;;;;;;-4.53;100.00;97343.59;4976980;28;20074;-66
2022/02/13 01:34:54;;;;;;;21.33;11.27;;;;;;;-4.48;100.00;97343.66;4983354;28;20072;-65
2022/02/13 01:37:19;;;;;;;20.95;11.40;;;;;;;-4.51;100.00;97341.47;4977341;28;20598;-66
2022/02/13 01:39:47;;;;;;;18.05;10.30;;;;;;;-4.50;100.00;97337.75;4983062;28;20108;-65
2022/02/13 01:42:14;;;;;;;19.33;10.55;;;;;;;-4.53;100.00;97346.28;4978744;28;20129;-66
2022/02/13 01:44:40;;;;;;;21.02;11.23;;;;;;;-4.46;100.00;97346.88;4983528;28;20093;-64
2022/02/13 01:47:06;;;;;;;22.35;11.13;;;;;;;-4.25;100.00;97361.22;4993317;28;20046;-67
2022/02/13 01:49:32;;;;;;;18.73;10.80;;;;;;;-4.20;100.00;97363.13;4999340;28;20621;-67
2022/02/13 01:52:03;;;;;;;19.25;11.25;;;;;;;-4.05;100.00;97355.25;4997505;28;20040;-67
2022/02/13 01:54:29;;;;;;;21.65;11.02;;;;;;;-4.18;100.00;97369.03;4981964;28;20046;-67
2022/02/13 01:56:55;;;;;;;19.85;10.50;;;;;;;-4.19;100.00;97363.97;4981939;28;20559;-67
2022/02/13 01:59:20;;;;;;;21.35;11.13;;;;;;;-4.09;100.00;97361.34;4977572;28;20483;-66
2022/02/13 02:01:46;;;;;;;19.77;10.90;;;;;;;-4.06;100.00;97366.19;4996996;28;20057;-66
2022/02/13 02:04:12;;;;;;;19.20;10.25;;;;;;;-3.90;100.00;97364.44;4977858;28;20053;-66
2022/02/13 02:06:37;;;;;;;24.42;11.32;;;;;;;-3.83;100.00;97370.38;4980498;28;20101;-67
2022/02/13 02:09:04;;;;;;;16.73;10.05;;;;;;;-3.70;100.00;97371.78;4976782;28;20134;-64
2022/02/13 02:11:30;;;;;;;20.40;10.15;;;;;;;-3.81;100.00;97368.25;4982483;28;20038;-66
2022/02/13 02:13:56;;;;;;;18.45;10.10;;;;;;;-3.88;100.00;97362.31;4988405;28;20044;-66
2022/02/13 02:16:22;;;;;;;19.17;9.60;;;;;;;-4.20;100.00;97365.81;4986827;28;21075;-66
2022/02/13 02:18:47;;;;;;;22.45;10.38;;;;;;;-4.69;100.00;97350.66;4988159;28;20110;-65
2022/02/13 02:21:13;;;;;;;19.77;11.07;;;;;;;-5.06;100.00;97354.03;4982377;28;20061;-65
2022/02/13 02:23:39;;;;;;;22.60;11.93;;;;;;;-5.20;100.00;97348.25;4979896;28;20080;-64
2022/02/13 02:26:06;;;;;;;26.33;13.18;;;;;;;-5.10;100.00;97344.06;4974709;28;20064;-67
2022/02/13 02:28:31;;;;;;;22.50;12.02;;;;;;;-5.09;100.00;97337.69;4982087;28;20052;-67
2022/02/13 02:31:03;;;;;;;27.00;13.02;;;;;;;-5.02;100.00;97341.78;4980956;28;20050;-66
2022/02/13 02:33:28;;;;;;;23.38;12.75;;;;;;;-5.00;100.00;97333.50;4973885;28;20053;-66
2022/02/13 02:35:54;;;;;;;24.42;12.48;;;;;;;-5.00;100.00;97334.31;4978421;28;20100;-65
2022/02/13 02:38:20;;;;;;;24.77;12.45;;;;;;;-5.00;100.00;97331.63;4976498;28;20101;-66
2022/02/13 02:40:46;;;;;;;22.30;11.82;;;;;;;-4.98;100.00;97328.72;4980910;28;20038;-67
2022/02/13 02:43:12;;;;;;;20.30;11.52;;;;;;;-4.91;100.00;97325.84;4976611;28;20553;-66
2022/02/13 02:45:37;;;;;;;23.92;11.20;;;;;;;-5.00;100.00;97325.50;4980498;28;20046;-67
2022/02/13 02:48:03;;;;;;;18.35;10.10;;;;;;;-5.04;100.00;97327.03;4979313;28;20058;-69
2022/02/13 02:50:29;;;;;;;21.95;11.27;;;;;;;-5.08;100.00;97320.59;4979649;28;20038;-68
2022/02/13 02:52:54;;;;;;;20.08;9.65;;;;;;;-5.05;100.00;97317.41;4980920;28;20387;-68
2022/02/13 02:55:20;;;;;;;19.65;10.90;;;;;;;-5.03;100.00;97321.44;4975498;28;20046;-68
2022/02/13 02:57:45;;;;;;;22.67;11.02;;;;;;;-5.15;100.00;97320.78;4982090;28;20042;-68
2022/02/13 03:00:12;;;;;;;21.13;10.90;;;;;;;-5.22;100.00;97320.97;4976460;28;20475;-68
2022/02/13 03:02:40;;;;;;;19.17;9.65;;;;;;;-5.06;100.00;97319.28;4980434;28;20121;-67
2022/02/13 03:05:06;;;;;;;20.52;10.77;;;;;;;-4.98;100.00;97311.88;4976522;28;20049;-65
2022/02/13 03:07:31;;;;;;;24.95;11.40;;;;;;;-5.02;100.00;97323.06;4977725;28;20039;-68
2022/02/13 03:09:57;;;;;;;23.45;10.60;;;;;;;-4.78;100.00;97320.09;4979549;28;20084;-65
2022/02/13 03:12:22;;;;;;;18.98;10.60;;;;;;;-4.90;100.00;97314.09;4975718;28;20578;-67
2022/02/13 03:14:48;;;;;;;20.33;10.40;;;;;;;-5.02;100.00;97324.94;4979653;28;20046;-67
2022/02/13 03:17:14;;;;;;;18.40;10.40;;;;;;;-4.89;100.00;97324.53;4975455;28;20050;-67
2022/02/13 03:19:40;;;;;;;19.27;9.65;;;;;;;-4.95;100.00;97328.22;4981599;28;20518;-67
2022/02/13 03:22:06;;;;;;;16.10;9.05;;;;;;;-4.99;100.00;97321.75;4974484;28;20043;-67
2022/02/13 03:24:32;;;;;;;17.15;10.15;;;;;;;-4.99;100.00;97324.41;4979731;28;20042;-66
2022/02/13 03:27:01;;;;;;;16.60;9.48;;;;;;;-4.91;100.00;97326.66;4980240;28;20038;-65
2022/02/13 03:29:26;;;;;;;18.48;9.88;;;;;;;-4.89;100.00;97323.75;4977897;28;20038;-66
2022/02/13 03:31:53;;;;;;;16.85;9.75;;;;;;;-5.15;100.00;97322.63;4985712;28;20046;-66
2022/02/13 03:34:18;;;;;;;19.02;10.77;;;;;;;-5.36;100.00;97316.28;4979365;28;20078;-65
2022/02/13 03:36:46;;;;;;;19.15;10.52;;;;;;;-5.34;100.00;97316.84;4983425;28;20089;-69
2022/02/13 03:39:11;;;;;;;17.27;10.30;;;;;;;-5.36;100.00;97321.63;4976086;28;20042;-67
2022/02/13 03:41:36;;;;;;;17.42;9.52;;;;;;;-5.38;100.00;97317.31;5001329;28;20046;-67
2022/02/13 03:44:02;;;;;;;21.85;11.13;;;;;;;-5.30;100.00;97323.28;5000270;28;20084;-68
2022/02/13 03:46:28;;;;;;;19.23;10.45;;;;;;;-5.22;100.00;97318.31;4982534;28;20387;-66
2022/02/13 03:48:53;;;;;;;19.60;10.23;;;;;;;-5.11;100.00;97316.56;4991840;28;20192;-65
2022/02/13 03:51:19;;;;;;;19.70;10.18;;;;;;;-5.05;100.00;97315.56;4998169;28;20041;-65
2022/02/13 03:53:44;;;;;;;18.00;10.40;;;;;;;-5.06;100.00;97307.78;5004500;28;20144;-67
2022/02/13 03:56:09;;;;;;;18.13;9.48;;;;;;;-5.12;100.00;97306.91;4999800;28;20045;-68
2022/02/13 03:58:35;;;;;;;16.33;9.18;;;;;;;-5.04;100.00;97308.34;5004061;28;20045;-67
2022/02/13 04:01:00;;;;;;;14.65;9.10;;;;;;;-4.90;100.00;97320.25;5001618;28;20123;-67
2022/02/13 04:03:26;;;;;;;15.32;9.52;;;;;;;-4.88;100.00;97309.31;4998819;28;20053;-67
2022/02/13 04:05:54;;;;;;;14.18;8.32;;;;;;;-5.09;100.00;97309.09;5004045;28;20037;-67
2022/02/13 04:08:23;;;;;;;15.20;9.25;;;;;;;-5.14;100.00;97305.56;4997834;28;20120;-66
2022/02/13 04:10:49;;;;;;;15.90;9.25;;;;;;;-5.10;100.00;97306.69;5003028;28;20042;-67
2022/02/13 04:13:16;;;;;;;18.52;9.85;;;;;;;-5.08;100.00;97299.22;4998467;28;20386;-67
2022/02/13 04:15:41;;;;;;;20.58;11.20;;;;;;;-5.08;100.00;97299.22;5004068;28;20042;-67
2022/02/13 04:18:15;;;;;;;16.08;10.80;;;;;;;-5.12;100.00;97295.44;4997082;28;20398;-67
2022/02/13 04:20:42;;;;;;;17.65;9.93;;;;;;;-5.12;100.00;97295.44;4981954;28;20495;-68
2022/02/13 04:23:08;;;;;;;18.38;10.63;;;;;;;-5.07;100.00;97293.63;4979014;28;20108;-65
2022/02/13 04:25:34;;;;;;;20.52;10.80;;;;;;;-5.11;100.00;97300.53;4980953;28;20535;-66
2022/02/13 04:28:00;;;;;;;15.55;9.23;;;;;;;-5.04;100.00;97298.47;4981954;28;20082;-67
2022/02/13 04:30:26;;;;;;;20.40;10.13;;;;;;;-5.08;100.00;97301.88;4980173;28;20085;-67
2022/02/13 04:32:53;;;;;;;19.40;9.43;;;;;;;-5.07;100.00;97306.19;4984260;28;20074;-66
2022/02/13 04:35:19;;;;;;;21.13;10.05;;;;;;;-4.89;100.00;97300.50;4975538;28;20054;-66
2022/02/13 04:37:50;;;;;;;21.58;11.25;;;;;;;-4.91;100.00;97299.94;4984590;28;20570;-66
2022/02/13 04:40:15;;;;;;;30.00;15.13;;;;;;;-4.87;100.00;97295.69;4976841;28;20069;-66
2022/02/13 04:42:41;;;;;;;19.75;11.02;;;;;;;-4.92;100.00;97289.50;4983501;28;20534;-66
2022/02/13 04:45:06;;;;;;;15.07;9.35;;;;;;;-4.91;100.00;97280.44;4978046;28;20574;-66
2022/02/13 04:47:32;;;;;;;18.33;9.32;;;;;;;-4.77;100.00;97283.47;4983362;28;20546;-67
2022/02/13 04:49:58;;;;;;;16.73;10.02;;;;;;;-4.76;100.00;97283.22;4983861;28;20050;-66
2022/02/13 04:52:23;;;;;;;16.73;9.55;;;;;;;-4.76;100.00;97275.22;4978609;28;20563;-65
2022/02/13 04:54:49;;;;;;;19.55;9.55;;;;;;;-4.78;100.00;97287.22;4984874;28;20045;-66
2022/02/13 04:57:14;;;;;;;17.50;10.10;;;;;;;-4.80;100.00;97280.25;4976336;28;20062;-66
2022/02/13 04:59:40;;;;;;;16.98;9.52;;;;;;;-4.83;100.00;97275.41;4983647;28;20551;-66
2022/02/13 05:02:06;;;;;;;15.73;8.77;;;;;;;-4.78;100.00;97268.53;4979282;28;20412;-66
2022/02/13 05:04:32;;;;;;;17.65;9.23;;;;;;;-4.82;100.00;97263.69;4983536;28;20050;-66
2022/02/13 05:06:58;;;;;;;14.27;9.32;;;;;;;-4.87;100.00;97255.59;4983097;28;20030;-65
2022/02/13 05:09:23;;;;;;;15.48;9.20;;;;;;;-4.54;100.00;97261.75;4976030;28;20034;-66
2022/02/13 05:11:49;;;;;;;17.27;9.40;;;;;;;-4.29;100.00;97265.69;4981963;28;20034;-66
2022/02/13 05:14:15;;;;;;;14.75;9.18;;;;;;;-4.27;100.00;97259.03;4972954;28;20105;-66
2022/02/13 05:16:41;;;;;;;16.08;8.95;;;;;;;-4.27;100.00;97252.88;4981801;28;20042;-64
2022/02/13 05:19:07;;;;;;;17.08;9.38;;;;;;;-4.32;100.00;97253.66;4977293;28;20062;-67
2022/02/13 05:21:33;;;;;;;13.93;8.52;;;;;;;-4.37;100.00;97256.28;4983599;28;20046;-68
2022/02/13 05:23:58;;;;;;;12.68;8.80;;;;;;;-4.38;100.00;97252.00;4998960;28;20077;-66
2022/02/13 05:26:24;;;;;;;15.95;8.52;;;;;;;-4.37;100.00;97252.81;4995104;28;20048;-66
2022/02/13 05:28:49;;;;;;;12.82;8.15;;;;;;;-4.47;100.00;97246.31;4979970;28;20444;-65
2022/02/13 05:31:16;;;;;;;15.35;8.70;;;;;;;-4.35;100.00;97248.00;4978674;28;20034;-67
2022/02/13 05:33:42;;;;;;;16.65;8.50;;;;;;;-4.46;100.00;97244.47;4983171;28;20039;-66
2022/02/13 05:36:07;;;;;;;15.18;8.25;;;;;;;-4.50;100.00;97238.81;4977052;28;20118;-67
2022/02/13 05:38:33;;;;;;;12.50;8.32;;;;;;;-4.48;100.00;97233.22;4982362;28;20137;-67
2022/02/13 05:40:59;;;;;;;15.27;9.27;;;;;;;-4.40;100.00;97240.75;4983013;28;20048;-66
2022/02/13 05:43:24;;;;;;;17.13;8.68;;;;;;;-4.46;100.00;97239.13;4974000;28;20461;-66
2022/02/13 05:45:50;;;;;;;16.85;8.48;;;;;;;-4.50;100.00;97236.16;4984687;28;20066;-67
2022/02/13 05:48:16;;;;;;;16.25;9.60;;;;;;;-4.54;100.00;97234.22;4985757;28;20034;-66
2022/02/13 05:50:41;;;;;;;16.90;8.73;;;;;;;-4.56;100.00;97233.69;5001151;28;20053;-67
2022/02/13 05:53:07;;;;;;;15.93;8.93;;;;;;;-4.55;100.00;97236.09;4990914;28;20105;-66
2022/02/13 05:55:33;;;;;;;25.25;9.43;;;;;;;-4.42;100.00;97234.84;4982961;28;20050;-65
2022/02/13 05:57:59;;;;;;;17.55;9.55;;;;;;;-4.38;100.00;97229.81;4979564;28;20065;-65
2022/02/13 06:00:25;;;;;;;17.42;9.48;;;;;;;-4.49;100.00;97220.91;4974447;28;20054;-66
2022/02/13 06:02:51;;;;;;;17.55;10.82;;;;;;;-4.77;100.00;97216.66;4975585;28;20491;-67
2022/02/13 06:05:17;;;;;;;18.60;10.38;;;;;;;-4.90;100.00;97216.03;4973477;28;20511;-65
2022/02/13 06:07:43;;;;;;;18.73;10.18;;;;;;;-5.00;100.00;97227.44;4968494;28;20030;-65
2022/02/13 06:10:11;;;;;;;17.25;10.63;;;;;;;-4.77;100.00;97222.00;4973177;28;20066;-65
2022/02/13 06:12:37;;;;;;;18.02;10.45;;;;;;;-4.69;100.00;97218.88;4976235;28;20070;-67
2022/02/13 06:15:03;;;;;;;19.48;10.32;;;;;;;-4.61;100.00;97215.72;4972792;28;20522;-68
2022/02/13 06:17:30;;;;;;;17.50;9.52;;;;;;;-4.54;100.00;97213.63;4976147;28;20054;-67
2022/02/13 06:19:55;;;;;;;20.85;10.93;;;;;;;-4.39;100.00;97217.47;4974646;28;20046;-66
2022/02/13 06:22:21;;;;;;;19.45;10.55;;;;;;;-4.45;100.00;97217.47;4977819;28;20919;-68
2022/02/13 06:24:47;;;;;;;20.42;9.60;;;;;;;-4.46;100.00;97220.41;4979567;28;20089;-65
2022/02/13 06:27:13;;;;;;;20.42;9.77;;;;;;;-4.45;100.00;97227.34;4973995;28;20081;-66
2022/02/13 06:29:38;;;;;;;17.88;10.15;;;;;;;-4.49;100.00;97226.25;4973581;28;20518;-65
2022/02/13 06:32:04;;;;;;;16.52;9.68;;;;;;;-4.44;100.00;97219.06;4972592;28;20078;-67
2022/02/13 06:34:30;;;;;;;18.92;9.90;;;;;;;-4.40;100.00;97215.88;4980597;28;20038;-66
2022/02/13 06:36:55;;;;;;;15.43;8.77;;;;;;;-4.48;100.00;97217.19;4980520;28;20038;-66
2022/02/13 06:39:20;;;;;;;17.05;9.60;;;;;;;-4.52;100.00;97213.38;4977455;28;20881;-67
2022/02/13 06:41:46;;;;;;;18.40;9.73;;;;;;;-4.49;100.00;97207.53;4980816;28;20043;-66
2022/02/13 06:44:13;;;;;;;14.90;9.63;;;;;;;-4.43;100.00;97207.31;4967480;28;20081;-67
2022/02/13 06:46:40;;;;;;;15.20;9.73;;;;;;;-4.47;100.00;97210.75;4965712;28;20050;-66
2022/02/13 06:49:07;;;;;;;17.02;10.10;;;;;;;-4.40;100.00;97195.28;4974776;28;20097;-68
2022/02/13 06:51:32;;;;;;;19.83;11.00;;;;;;;-4.37;100.00;97194.78;4980043;28;20042;-67
2022/02/13 06:53:58;;;;;;;18.27;9.85;;;;;;;-4.34;100.00;97191.59;4982228;28;20042;-67
2022/02/13 06:56:23;;;;;;;16.38;9.95;;;;;;;-4.27;100.00;97188.69;4972737;28;20808;-67
2022/02/13 06:58:49;;;;;;;15.55;10.00;;;;;;;-4.20;100.00;97191.94;4980628;28;20050;-67
2022/02/13 07:01:15;;;;;;;20.00;10.55;;;;;;;-4.16;100.00;97194.88;4964587;28;20074;-66
2022/02/13 07:03:40;;;;;;;18.75;10.80;;;;;;;-4.10;100.00;97196.53;4976851;28;20092;-68
2022/02/13 07:06:07;;;;;;;15.18;9.82;;;;;;;-3.97;100.00;97192.59;5009006;23;20500;-66
2022/02/13 07:08:33;;;;;;;15.30;9.50;;;;;;;-3.85;100.00;97188.63;5011529;28;20072;-65
2022/02/13 07:10:59;;;;;;;16.27;9.57;;;;;;;-3.70;100.00;97187.88;5021505;28;20389;-66
2022/02/13 07:13:24;;;;;;;20.00;11.20;;;;;;;-3.57;100.00;97175.84;5017019;28;20079;-63
2022/02/13 07:15:50;;;;;;;19.50;10.38;;;;;;;-3.36;100.00;97184.75;5020989;28;20134;-64
2022/02/13 07:18:16;;;;;;;19.17;10.15;;;;;;;-3.05;100.00;97175.97;4997967;28;20088;-65
2022/02/13 07:20:41;;;;;;;19.38;10.27;;;;;;;-2.53;100.00;97183.72;5008831;28;20050;-65
2022/02/13 07:23:07;;;;;;;13.35;9.18;;;;;;;-1.81;100.00;97172.00;4994248;28;20042;-64
2022/02/13 07:25:32;;;;;;;19.42;10.57;;;;;;;-0.93;97.97;97177.69;4994631;28;20486;-64
2022/02/13 07:27:58;;;;;;;15.00;9.15;;;;;;;0.07;90.04;97175.41;5000865;28;20045;-64
2022/02/13 07:30:24;;;;;;;13.75;8.40;;;;;;;0.89;83.83;97172.47;4997113;28;20517;-64
2022/02/13 07:32:49;;;;;;;13.60;8.18;;;;;;;1.57;78.90;97167.63;4997783;28;20050;-64
2022/02/13 07:35:15;;;;;;;11.38;7.57;;;;;;;2.14;75.25;97158.47;4995019;28;20038;-62
2022/02/13 07:37:42;;;;;;;13.85;7.18;;;;;;;2.66;72.34;97164.44;4997806;28;20042;-64
2022/02/13 07:40:08;;;;;;;13.85;7.10;;;;;;;3.23;70.26;97166.69;4994587;28;20042;-64
2022/02/13 07:42:34;;;;;;;12.40;7.13;;;;;;;3.76;68.05;97168.63;4999840;28;20089;-64
2022/02/13 07:44:59;;;;;;;10.10;6.30;;;;;;;4.40;66.67;97154.66;5000962;28;20096;-65
2022/02/13 07:47:25;;;;;;;12.73;6.85;;;;;;;4.02;63.95;97149.75;4993938;28;20448;-65
2022/02/13 07:49:51;;;;;;;10.88;7.32;;;;;;;3.67;68.01;97150.72;5000253;28;20057;-65
2022/02/13 07:52:17;;;;;;;11.98;7.05;;;;;;;4.55;65.37;97144.50;4993797;28;20048;-64
2022/02/13 07:54:42;;;;;;;14.23;6.82;;;;;;;4.86;61.38;97138.97;4999843;28;20038;-63
2022/02/13 07:57:08;;;;;;;13.15;7.05;;;;;;;3.77;65.74;97143.13;4993604;28;20038;-65
2022/02/13 07:59:34;;;;;;;14.25;7.65;;;;;;;4.06;66.86;97147.22;4999375;28;20195;-64
2022/02/13 08:02:00;;;;;;;11.02;6.75;;;;;;;3.67;66.61;97131.75;4999269;28;20459;-65
2022/02/13 08:04:26;;;;;;;63.85;24.63;;;;;;;2.43;70.94;97134.66;4994562;28;20187;-65
2022/02/13 08:06:52;;;;;;;42.75;31.58;;;;;;;2.09;73.78;97127.75;4998726;28;20224;-65
2022/02/13 08:09:17;;;;;;;13.43;7.72;;;;;;;2.96;72.84;97127.00;4994633;28;20277;-65
2022/02/13 08:11:43;;;;;;;11.18;7.35;;;;;;;3.44;67.83;97134.50;4999339;28;20069;-65
2022/02/13 08:14:09;;;;;;;9.68;6.47;;;;;;;3.01;68.33;97126.88;4994337;28;20053;-66
2022/02/13 08:16:34;;;;;;;23.52;11.48;;;;;;;3.87;65.47;97124.97;5001926;28;20042;-64
2022/02/13 08:19:00;;;;;;;29.73;16.13;;;;;;;2.99;67.43;97127.19;5002162;28;20129;-63
2022/02/13 08:21:26;;;;;;;9.27;5.97;;;;;;;2.77;66.96;97125.22;4996174;28;20045;-65
2022/02/13 08:23:53;;;;;;;7.80;5.30;;;;;;;3.17;65.47;97124.59;5002170;28;20053;-65
2022/02/13 08:26:19;;;;;;;17.88;13.50;;;;;;;3.40;64.41;97109.13;4997230;28;20116;-65
2022/02/13 08:28:47;;;;;;;11.75;6.10;;;;;;;3.10;63.19;97119.63;5002652;28;20046;-67
2022/02/13 08:31:14;;;;;;;10.88;5.90;;;;;;;3.65;60.62;97115.78;4995152;28;20141;-65
2022/02/13 08:33:41;;;;;;;12.02;6.07;;;;;;;3.55;60.90;97114.16;5001746;28;20112;-65
2022/02/13 08:36:07;;;;;;;7.63;4.35;;;;;;;3.02;64.04;97110.31;4997064;28;20096;-62
2022/02/13 08:38:32;;;;;;;10.18;5.72;;;;;;;3.91;62.34;97107.00;5001839;28;20049;-63
2022/02/13 08:40:58;;;;;;;11.52;6.65;;;;;;;3.49;62.08;97117.31;5003268;28;20048;-63
2022/02/13 08:43:23;;;;;;;11.60;6.68;;;;;;;3.78;60.60;97109.50;4999090;28;20045;-65
2022/02/13 08:45:50;;;;;;;13.38;10.23;;;;;;;3.39;62.29;97097.50;5002539;28;20552;-62
2022/02/13 08:48:18;;;;;;;7.22;3.92;;;;;;;3.75;60.76;97093.88;4997021;28;20045;-63
2022/02/13 08:50:45;;;;;;;10.60;7.93;;;;;;;4.74;58.55;97093.44;5002970;28;20534;-63
2022/02/13 08:53:10;;;;;;;14.85;11.02;;;;;;;4.28;57.55;97091.31;4997401;28;20073;-63
2022/02/13 08:55:37;;;;;;;8.85;3.50;;;;;;;4.14;56.41;97089.53;4997705;28;20052;-62
2022/02/13 08:58:03;;;;;;;11.23;7.50;;;;;;;5.04;54.37;97081.94;4997640;28;20135;-63
2022/02/13 09:00:31;;;;;;;7.40;4.93;;;;;;;5.00;54.51;97081.78;5001581;28;20049;-63
2022/02/13 09:02:58;;;;;;;4.85;3.17;;;;;;;4.81;53.77;97086.72;4998678;28;20139;-63
2022/02/13 09:05:24;;;;;;;6.47;3.72;;;;;;;4.90;54.43;97082.13;4996565;28;20625;-62
2022/02/13 09:07:50;;;;;;;8.60;4.38;;;;;;;5.79;52.41;97073.44;5003059;28;20490;-64
2022/02/13 09:10:15;;;;;;;8.30;4.60;;;;;;;5.97;48.73;97066.84;4996073;28;20059;-64
2022/02/13 09:12:42;;;;;;;4.30;2.38;;;;;;;4.98;50.53;97070.44;5003673;28;20552;-61
2022/02/13 09:15:08;;;;;;;10.88;7.55;;;;;;;4.98;51.05;97067.72;4995688;28;20052;-64
2022/02/13 09:17:34;;;;;;;11.50;7.72;;;;;;;5.44;49.73;97068.13;4999695;28;20848;-64
2022/02/13 09:20:00;;;;;;;12.80;8.00;;;;;;;5.33;47.93;97063.06;5002990;28;20165;-65
2022/02/13 09:22:26;;;;;;;14.60;9.23;;;;;;;5.80;49.11;97054.09;4998150;28;20128;-63
2022/02/13 09:24:52;;;;;;;6.45;3.03;;;;;;;4.97;49.09;97052.59;5002070;28;20168;-65
2022/02/13 09:27:18;;;;;;;8.15;4.20;;;;;;;5.32;48.11;97050.59;4996624;28;20034;-64
2022/02/13 09:29:44;;;;;;;6.55;2.60;;;;;;;5.00;48.30;97045.69;5001819;28;20045;-64
2022/02/13 09:32:10;;;;;;;12.50;7.85;;;;;;;4.85;48.01;97049.72;4995199;28;20077;-65
2022/02/13 09:34:36;;;;;;;6.50;3.00;;;;;;;5.17;47.03;97042.97;5003257;28;20060;-66
2022/02/13 09:37:02;;;;;;;8.68;4.70;;;;;;;5.23;47.41;97040.88;5002783;28;20048;-65
2022/02/13 09:39:29;;;;;;;25.17;12.40;;;;;;;5.69;46.53;97029.22;4996013;28;20042;-63
2022/02/13 09:41:56;;;;;;;5.30;2.95;;;;;;;5.51;45.55;97027.66;5001336;28;20065;-64
2022/02/13 09:44:23;;;;;;;7.00;3.80;;;;;;;5.71;44.91;97026.16;4997105;28;20426;-64
2022/02/13 09:46:49;;;;;;;7.50;4.18;;;;;;;6.39;43.89;97028.03;5006728;28;20374;-64
2022/02/13 09:49:22;;;;;;;7.45;4.03;;;;;;;6.36;44.17;97021.34;5000639;28;20510;-64
2022/02/13 09:51:48;;;;;;;7.40;4.00;;;;;;;7.14;42.31;97024.53;5002538;28;20041;-64
2022/02/13 09:54:14;;;;;;;7.78;4.30;;;;;;;7.73;41.66;97009.75;4997764;28;20045;-64
2022/02/13 09:56:39;;;;;;;5.82;3.17;;;;;;;7.17;41.23;97011.03;5000145;28;20055;-64
2022/02/13 09:59:09;;;;;;;5.57;3.40;;;;;;;6.65;41.49;97008.78;4997159;28;20071;-63
2022/02/13 10:01:45;;;;;;;12.80;8.57;;;;;;;6.88;40.62;97006.50;5000770;28;20122;-64
2022/02/13 10:04:12;;;;;;;10.50;5.85;;;;;;;7.30;40.82;97003.66;4991653;28;20050;-63
2022/02/13 10:06:38;;;;;;;15.70;9.48;;;;;;;6.89;40.59;97005.38;5002969;28;20048;-63
2022/02/13 10:09:06;;;;;;;5.10;2.45;;;;;;;7.54;39.27;97005.63;4996134;28;20053;-64
2022/02/13 10:11:37;;;;;;;6.10;3.33;;;;;;;8.29;37.43;96988.09;5002673;28;20176;-64
2022/02/13 10:14:11;;;;;;;4.38;2.40;;;;;;;8.10;36.68;96993.34;5000492;28;20049;-63
2022/02/13 10:16:45;;;;;;;3.20;1.88;;;;;;;8.26;36.41;96986.06;4999486;28;20050;-65
2022/02/13 10:19:11;;;;;;;10.80;4.88;;;;;;;7.36;36.20;96990.63;4997039;28;20072;-64
2022/02/13 10:21:45;;;;;;;5.30;1.80;;;;;;;8.42;35.32;96981.50;5006610;28;20050;-65
2022/02/13 10:24:15;;;;;;;5.93;1.67;;;;;;;10.17;32.30;96974.63;5001409;28;20115;-65
2022/02/13 10:26:42;;;;;;;3.22;1.98;;;;;;;10.84;29.86;96982.69;5001224;28;20041;-64
2022/02/13 10:29:14;;;;;;;5.32;2.25;;;;;;;11.49;29.29;96976.47;5000073;28;20392;-66
2022/02/13 10:31:42;;;;;;;3.90;1.65;;;;;;;11.89;28.52;96977.91;4996714;28;20136;-64
2022/02/13 10:34:08;;;;;;;4.05;1.90;;;;;;;11.13;29.21;96975.84;5007604;28;20042;-64
2022/02/13 10:36:41;;;;;;;4.68;2.10;;;;;;;11.66;28.50;96973.22;5002485;28;20751;-66
2022/02/13 10:39:26;;;;;;;3.90;2.00;;;;;;;10.51;30.45;96962.91;4997921;28;20763;-66
2022/02/13 10:41:52;;;;;;;4.80;2.45;;;;;;;11.84;28.64;96973.50;4997933;28;20038;-66
2022/02/13 10:44:27;;;;;;;2.83;1.60;;;;;;;11.64;29.00;96972.00;4999758;28;20116;-66
2022/02/13 10:46:54;;;;;;;4.68;1.88;;;;;;;11.88;28.44;96961.78;5000109;28;20038;-65
2022/02/13 10:49:20;;;;;;;4.22;1.80;;;;;;;11.96;28.18;96958.81;4995059;28;20042;-62
2022/02/13 10:51:46;;;;;;;3.58;1.80;;;;;;;12.67;26.14;96949.97;5002419;28;20359;-64
2022/02/13 10:54:12;;;;;;;3.58;2.00;;;;;;;10.92;28.12;96942.53;4996396;28;20127;-63
2022/02/13 10:56:39;;;;;;;4.40;2.05;;;;;;;11.61;27.88;96945.31;5001018;28;20046;-65
2022/02/13 10:59:08;;;;;;;5.18;2.33;;;;;;;11.25;28.31;96937.28;4997575;28;20037;-65
2022/02/13 11:01:35;;;;;;;8.23;2.53;;;;;;;10.39;30.43;96929.34;5000108;28;20490;-64
2022/02/13 11:04:03;;;;;;;6.90;2.53;;;;;;;11.08;30.54;96922.09;5001735;28;20489;-65
2022/02/13 11:06:34;;;;;;;6.70;2.85;;;;;;;12.46;27.66;96919.47;4999346;28;20046;-67
2022/02/13 11:09:17;;;;;;;6.72;1.85;;;;;;;12.45;27.17;96918.69;5002430;28;20208;-64
2022/02/13 11:11:48;;;;;;;3.50;2.00;;;;;;;12.75;26.77;96906.88;5000706;28;20050;-64
2022/02/13 11:14:28;;;;;;;8.32;3.55;;;;;;;13.68;25.26;96893.22;4996683;28;20042;-63
2022/02/13 11:16:55;;;;;;;21.05;9.02;;;;;;;12.94;26.75;96895.69;4998769;28;20383;-64